createdAt,value
2022-10-18T00:00:50.052Z,12.2
2022-10-18T00:02:49.986Z,12.2
2022-10-18T00:04:50.742Z,12.1
2022-10-18T00:06:49.976Z,12.1
2022-10-18T00:08:50.859Z,12.1
2022-10-18T00:10:50.710Z,12.1
2022-10-18T00:12:50.842Z,12.1
2022-10-18T00:14:50.762Z,12.0
2022-10-18T00:16:50.075Z,12.0
2022-10-18T00:18:49.989Z,12.0
2022-10-18T00:20:50.909Z,12.0
2022-10-18T00:22:50.039Z,12.0
2022-10-18T00:24:50.310Z,12.0
2022-10-18T00:26:50.625Z,12.0
2022-10-18T00:28:50.999Z,12.0
2022-10-18T00:32:50.448Z,11.9
2022-10-18T00:34:49.991Z,11.9
2022-10-18T00:36:50.551Z,11.9
2022-10-18T00:38:50.618Z,11.9
2022-10-18T00:40:50.653Z,11.9
2022-10-18T00:42:50.789Z,11.9
2022-10-18T00:44:50.827Z,11.9
2022-10-18T00:46:50.058Z,11.8
2022-10-18T00:48:50.504Z,11.8
2022-10-18T00:50:50.582Z,11.8
2022-10-18T00:52:50.401Z,11.8
2022-10-18T00:54:50.564Z,11.8
2022-10-18T00:56:49.929Z,11.8
2022-10-18T00:58:50.783Z,11.8
2022-10-18T01:00:50.849Z,11.8
2022-10-18T01:02:50.680Z,11.8
2022-10-18T01:04:50.248Z,11.7
2022-10-18T01:06:50.875Z,11.7
2022-10-18T01:08:50.905Z,11.7
2022-10-18T01:10:50.899Z,11.7
2022-10-18T01:12:50.829Z,11.7
2022-10-18T01:14:50.845Z,11.7
2022-10-18T01:16:50.070Z,11.7
2022-10-18T01:18:50.147Z,11.6
2022-10-18T01:20:50.088Z,11.6
2022-10-18T01:22:50.257Z,11.6
2022-10-18T01:24:50.486Z,11.6
2022-10-18T01:26:49.916Z,11.6
2022-10-18T01:28:51.127Z,11.6
2022-10-18T01:30:50.189Z,11.6
2022-10-18T01:32:50.112Z,11.5
2022-10-18T01:34:50.407Z,11.5
2022-10-18T01:36:50.683Z,11.5
2022-10-18T01:38:50.631Z,11.5
2022-10-18T01:40:50.647Z,11.4
2022-10-18T01:42:50.523Z,11.4
2022-10-18T01:44:50.477Z,11.4
2022-10-18T01:46:50.848Z,11.4
2022-10-18T01:48:50.684Z,11.4
2022-10-18T01:50:49.949Z,11.4
2022-10-18T01:52:49.928Z,11.4
2022-10-18T01:54:50.116Z,11.4
2022-10-18T01:56:50.253Z,11.4
2022-10-18T01:58:50.301Z,11.3
2022-10-18T02:00:50.189Z,11.3
2022-10-18T02:02:50.211Z,11.4
2022-10-18T02:04:50.655Z,11.4
2022-10-18T02:06:50.007Z,11.4
2022-10-18T02:08:50.541Z,11.4
2022-10-18T02:10:50.378Z,11.4
2022-10-18T02:12:50.329Z,11.4
2022-10-18T02:14:50.278Z,11.4
2022-10-18T02:16:50.782Z,11.3
2022-10-18T02:18:50.780Z,11.3
2022-10-18T02:20:50.533Z,11.3
2022-10-18T02:22:50.544Z,11.3
2022-10-18T02:24:50.519Z,11.3
2022-10-18T02:26:50.803Z,11.3
2022-10-18T02:28:50.609Z,11.3
2022-10-18T02:30:50.597Z,11.3
2022-10-18T02:32:50.689Z,11.3
2022-10-18T02:34:50.319Z,11.3
2022-10-18T02:36:50.572Z,11.3
2022-10-18T02:38:50.760Z,11.3
2022-10-18T02:40:50.547Z,11.3
2022-10-18T02:42:50.499Z,11.2
2022-10-18T02:44:50.340Z,11.2
2022-10-18T02:46:50.569Z,11.2
2022-10-18T02:48:50.491Z,11.2
2022-10-18T02:50:50.328Z,11.2
2022-10-18T02:52:50.200Z,11.2
2022-10-18T02:54:50.117Z,11.1
2022-10-18T02:56:50.462Z,11.1
2022-10-18T02:58:50.302Z,11.1
2022-10-18T03:00:50.394Z,11.1
2022-10-18T03:02:50.477Z,11.1
2022-10-18T03:04:49.973Z,11.1
2022-10-18T03:06:50.325Z,11.1
2022-10-18T03:08:50.057Z,11.1
2022-10-18T03:10:49.944Z,11.0
2022-10-18T03:12:50.863Z,11.0
2022-10-18T03:14:50.769Z,11.0
2022-10-18T03:16:50.064Z,11.0
2022-10-18T03:18:50.116Z,11.0
2022-10-18T03:20:50.244Z,11.0
2022-10-18T03:22:50.267Z,11.0
2022-10-18T03:24:50.346Z,11.0
2022-10-18T03:26:50.880Z,11.0
2022-10-18T03:28:51.114Z,11.0
2022-10-18T03:30:50.090Z,10.9
2022-10-18T03:32:50.061Z,10.9
2022-10-18T03:34:50.795Z,10.9
2022-10-18T03:36:50.409Z,10.9
2022-10-18T03:38:50.169Z,10.9
2022-10-18T03:40:50.019Z,10.9
2022-10-18T03:42:49.944Z,10.9
2022-10-18T03:44:50.041Z,10.9
2022-10-18T03:46:50.356Z,10.9
2022-10-18T03:48:50.258Z,10.9
2022-10-18T03:50:50.361Z,10.9
2022-10-18T03:52:50.260Z,10.9
2022-10-18T03:54:50.395Z,10.9
2022-10-18T03:56:50.606Z,10.9
2022-10-18T03:58:50.637Z,10.9
2022-10-18T04:00:50.677Z,10.9
2022-10-18T04:02:56.360Z,10.9
2022-10-18T04:04:50.805Z,10.9
2022-10-18T04:06:49.940Z,10.9
2022-10-18T04:08:50.868Z,11.0
2022-10-18T04:10:49.898Z,11.0
2022-10-18T04:12:50.880Z,11.0
2022-10-18T04:14:50.700Z,11.0
2022-10-18T04:16:50.877Z,11.0
2022-10-18T04:18:50.848Z,11.1
2022-10-18T04:20:49.990Z,11.2
2022-10-18T04:22:50.093Z,11.2
2022-10-18T04:24:49.968Z,11.2
2022-10-18T04:26:50.266Z,11.2
2022-10-18T04:28:50.620Z,11.2
2022-10-18T04:30:50.708Z,11.2
2022-10-18T04:32:50.472Z,11.2
2022-10-18T04:34:50.950Z,11.2
2022-10-18T04:36:50.004Z,11.2
2022-10-18T04:38:50.101Z,11.3
2022-10-18T04:40:50.095Z,11.3
2022-10-18T04:42:50.130Z,11.3
2022-10-18T04:44:50.169Z,11.3
2022-10-18T04:46:50.653Z,11.3
2022-10-18T04:48:50.592Z,11.4
2022-10-18T04:50:50.532Z,11.4
2022-10-18T04:54:50.139Z,11.4
2022-10-18T04:56:50.345Z,11.4
2022-10-18T04:58:50.263Z,11.4
2022-10-18T05:00:50.110Z,11.4
2022-10-18T05:02:50.040Z,11.5
2022-10-18T05:04:50.744Z,11.5
2022-10-18T05:06:50.036Z,11.5
2022-10-18T05:08:50.911Z,11.6
2022-10-18T05:10:50.797Z,11.6
2022-10-18T05:12:50.913Z,11.6
2022-10-18T05:14:49.965Z,11.6
2022-10-18T05:16:50.053Z,11.6
2022-10-18T05:18:50.011Z,11.6
2022-10-18T05:20:49.934Z,11.6
2022-10-18T05:22:50.859Z,11.6
2022-10-18T05:24:50.662Z,11.6
2022-10-18T05:26:50.814Z,11.6
2022-10-18T05:28:51.164Z,11.6
2022-10-18T05:30:50.431Z,11.6
2022-10-18T05:32:50.452Z,11.6
2022-10-18T05:34:50.806Z,11.6
2022-10-18T05:36:50.218Z,11.6
2022-10-18T05:38:50.330Z,11.6
2022-10-18T05:40:50.150Z,11.7
2022-10-18T05:42:50.113Z,11.7
2022-10-18T05:44:49.907Z,11.7
2022-10-18T05:46:50.320Z,11.7
2022-10-18T05:48:50.368Z,11.7
2022-10-18T05:50:50.226Z,11.8
2022-10-18T05:52:50.072Z,11.8
2022-10-18T05:54:50.076Z,11.8
2022-10-18T05:56:50.393Z,11.8
2022-10-18T05:58:50.301Z,11.8
2022-10-18T06:00:50.096Z,11.9
2022-10-18T06:02:50.345Z,11.9
2022-10-18T06:04:50.079Z,11.9
2022-10-18T06:06:50.217Z,11.9
2022-10-18T06:08:50.091Z,12.0
2022-10-18T06:10:49.966Z,12.0
2022-10-18T06:12:50.810Z,12.0
2022-10-18T06:14:50.897Z,12.0
2022-10-18T06:16:50.070Z,12.0
2022-10-18T06:18:50.918Z,12.1
2022-10-18T06:20:50.860Z,12.1
2022-10-18T06:22:50.887Z,12.1
2022-10-18T06:24:57.624Z,12.1
2022-10-18T06:26:49.923Z,12.1
2022-10-18T06:28:50.926Z,12.1
2022-10-18T06:30:50.075Z,12.2
2022-10-18T06:32:50.120Z,12.2
2022-10-18T06:34:50.641Z,12.2
2022-10-18T06:36:49.951Z,12.2
2022-10-18T06:38:50.704Z,12.2
2022-10-18T06:40:50.798Z,12.2
2022-10-18T06:43:21.459Z,12.2
2022-10-18T06:44:50.775Z,12.2
2022-10-18T06:46:50.034Z,12.3
2022-10-18T06:48:50.007Z,12.3
2022-10-18T06:50:49.958Z,12.4
2022-10-18T06:52:50.727Z,12.5
2022-10-18T06:54:50.479Z,12.5
2022-10-18T06:56:50.705Z,12.5
2022-10-18T06:58:50.960Z,12.6
2022-10-18T07:00:50.912Z,12.6
2022-10-18T07:02:50.727Z,12.6
2022-10-18T07:04:50.252Z,12.6
2022-10-18T07:06:50.455Z,12.7
2022-10-18T07:08:50.531Z,12.8
2022-10-18T07:10:50.396Z,12.8
2022-10-18T07:14:50.507Z,12.9
2022-10-18T07:16:50.645Z,13.0
2022-10-18T07:18:50.421Z,13.0
2022-10-18T07:20:50.429Z,13.0
2022-10-18T07:22:50.228Z,13.1
2022-10-18T07:24:50.721Z,13.1
2022-10-18T07:26:50.927Z,13.1
2022-10-18T07:28:51.039Z,13.1
2022-10-18T07:30:49.973Z,13.2
2022-10-18T07:32:50.801Z,13.2
2022-10-18T07:34:50.057Z,13.2
2022-10-18T07:36:50.301Z,13.2
2022-10-18T07:38:50.202Z,13.2
2022-10-18T07:40:50.132Z,13.2
2022-10-18T07:42:50.003Z,13.2
2022-10-18T07:44:50.050Z,13.3
2022-10-18T07:46:50.060Z,13.3
2022-10-18T07:48:49.991Z,13.3
2022-10-18T07:50:50.826Z,13.3
2022-10-18T07:52:50.874Z,13.4
2022-10-18T07:54:50.906Z,13.4
2022-10-18T07:56:50.374Z,13.4
2022-10-18T07:58:50.406Z,13.4
2022-10-18T08:00:50.261Z,13.4
2022-10-18T08:02:50.190Z,13.5
2022-10-18T08:04:50.435Z,13.5
2022-10-18T08:06:49.952Z,13.6
2022-10-18T08:08:49.977Z,13.7
2022-10-18T08:10:50.932Z,13.8
2022-10-18T08:12:49.944Z,13.8
2022-10-18T08:14:49.935Z,13.8
2022-10-18T08:16:50.116Z,13.9
2022-10-18T08:18:50.268Z,14.0
2022-10-18T08:20:50.269Z,14.0
2022-10-18T08:22:50.177Z,14.1
2022-10-18T08:24:50.105Z,14.2
2022-10-18T08:26:50.260Z,14.2
2022-10-18T08:29:24.071Z,14.3
2022-10-18T08:30:50.088Z,14.3
2022-10-18T08:32:50.275Z,14.4
2022-10-18T08:34:49.946Z,14.5
2022-10-18T08:36:50.350Z,14.6
2022-10-18T08:38:50.442Z,14.6
2022-10-18T08:40:50.405Z,14.6
2022-10-18T08:42:50.183Z,14.7
2022-10-18T08:44:50.090Z,14.9
2022-10-18T08:46:50.444Z,15.0
2022-10-18T08:48:50.372Z,15.0
2022-10-18T08:50:50.420Z,15.1
2022-10-18T08:52:50.512Z,15.2
2022-10-18T08:54:50.725Z,15.4
2022-10-18T08:56:50.151Z,15.4
2022-10-18T08:58:50.178Z,15.5
2022-10-18T09:00:50.255Z,15.8
2022-10-18T09:02:50.309Z,15.8
2022-10-18T09:04:50.053Z,16.0
2022-10-18T09:06:50.260Z,16.0
2022-10-18T09:08:50.377Z,16.1
2022-10-18T09:10:50.539Z,16.2
2022-10-18T09:12:50.844Z,16.4
2022-10-18T09:14:49.952Z,16.5
2022-10-18T09:16:50.418Z,16.5
2022-10-18T09:18:50.271Z,16.6
2022-10-18T09:20:50.247Z,16.8
2022-10-18T09:22:50.302Z,16.9
2022-10-18T09:24:50.527Z,16.9
2022-10-18T09:26:50.929Z,17.0
2022-10-18T09:28:51.125Z,17.1
2022-10-18T09:30:50.305Z,17.3
2022-10-18T09:32:50.352Z,17.4
2022-10-18T09:34:49.937Z,17.4
2022-10-18T09:36:50.435Z,17.5
2022-10-18T09:38:50.538Z,17.6
2022-10-18T09:40:50.625Z,17.8
2022-10-18T09:42:50.605Z,18.0
2022-10-18T09:44:50.751Z,18.0
2022-10-18T09:46:50.199Z,18.1
2022-10-18T09:48:50.167Z,18.2
2022-10-18T09:50:50.034Z,18.3
2022-10-18T09:52:50.038Z,18.6
2022-10-18T09:54:50.202Z,18.6
2022-10-18T09:56:50.622Z,18.6
2022-10-18T09:58:50.704Z,18.7
2022-10-18T10:00:50.829Z,18.8
2022-10-18T10:02:51.239Z,18.9
2022-10-18T10:04:50.704Z,18.9
2022-10-18T10:06:50.875Z,19.0
2022-10-18T10:08:50.675Z,19.0
2022-10-18T10:10:50.642Z,19.1
2022-10-18T10:12:50.528Z,19.2
2022-10-18T10:14:50.482Z,19.2
2022-10-18T10:16:50.797Z,19.2
2022-10-18T10:18:50.901Z,19.3
2022-10-18T10:20:49.968Z,19.4
2022-10-18T10:22:50.089Z,19.4
2022-10-18T10:24:50.146Z,19.4
2022-10-18T10:26:50.564Z,19.5
2022-10-18T10:28:50.714Z,19.6
2022-10-18T10:30:50.843Z,19.6
2022-10-18T10:32:50.857Z,19.6
2022-10-18T10:34:50.438Z,19.6
2022-10-18T10:36:50.798Z,19.6
2022-10-18T10:38:50.900Z,19.6
2022-10-18T10:40:50.824Z,19.6
2022-10-18T10:42:50.774Z,19.7
2022-10-18T10:44:50.604Z,19.8
2022-10-18T10:46:49.956Z,19.8
2022-10-18T10:48:50.054Z,19.8
2022-10-18T10:50:55.678Z,19.8
2022-10-18T10:52:50.678Z,19.8
2022-10-18T10:55:23.189Z,19.8
2022-10-18T10:56:50.015Z,19.8
2022-10-18T10:58:50.980Z,19.7
2022-10-18T11:00:50.111Z,19.7
2022-10-18T11:03:29.335Z,19.7
2022-10-18T11:04:50.275Z,19.7
2022-10-18T11:06:50.585Z,19.7
2022-10-18T11:08:50.779Z,19.7
2022-10-18T11:10:50.883Z,19.6
2022-10-18T11:12:50.826Z,19.5
2022-10-18T11:14:50.740Z,19.5
2022-10-18T11:16:50.035Z,19.4
2022-10-18T11:18:50.754Z,19.4
2022-10-18T11:20:50.712Z,19.2
2022-10-18T11:22:50.826Z,19.1
2022-10-18T11:24:50.824Z,19.0
2022-10-18T11:26:54.494Z,18.9
2022-10-18T11:28:50.723Z,18.9
2022-10-18T11:30:50.644Z,18.7
2022-10-18T11:32:50.599Z,18.6
2022-10-18T11:34:50.295Z,18.6
2022-10-18T11:37:28.389Z,18.6
2022-10-18T11:38:50.214Z,18.5
2022-10-18T11:40:50.189Z,18.5
2022-10-18T11:42:50.089Z,18.6
2022-10-18T11:44:50.170Z,18.6
2022-10-18T11:46:50.513Z,18.5
2022-10-18T11:48:50.601Z,18.6
2022-10-18T11:50:50.525Z,18.6
2022-10-18T11:52:50.819Z,18.5
2022-10-18T11:54:50.672Z,18.5
2022-10-18T11:56:50.145Z,18.5
2022-10-18T11:58:50.872Z,18.4
2022-10-18T12:00:50.668Z,18.4
2022-10-18T12:02:51.147Z,18.4
2022-10-18T12:05:24.439Z,18.4
2022-10-18T12:06:50.235Z,18.4
2022-10-18T12:08:50.127Z,18.4
2022-10-18T12:11:07.063Z,18.4
2022-10-18T12:12:50.669Z,18.4
2022-10-18T12:14:50.689Z,18.5
2022-10-18T12:17:40.139Z,18.5
2022-10-18T12:18:50.882Z,18.5
2022-10-18T12:20:49.886Z,18.5
2022-10-18T12:22:50.909Z,18.5
2022-10-18T12:24:49.976Z,18.5
2022-10-18T12:26:50.245Z,18.6
2022-10-18T12:28:50.459Z,18.6
2022-10-18T12:30:50.481Z,18.6
2022-10-18T12:33:28.057Z,18.6
2022-10-18T12:34:50.132Z,18.6
2022-10-18T12:36:51.047Z,18.6
2022-10-18T12:38:50.860Z,18.6
2022-10-18T12:40:50.632Z,18.7
2022-10-18T12:42:50.579Z,18.7
2022-10-18T12:44:50.527Z,18.6
2022-10-18T12:46:50.038Z,18.6
2022-10-18T12:48:50.133Z,18.6
2022-10-18T12:50:50.159Z,18.6
2022-10-18T12:52:50.165Z,18.6
2022-10-18T12:54:50.255Z,18.6
2022-10-18T12:56:50.773Z,18.5
2022-10-18T12:58:50.658Z,18.5
2022-10-18T13:00:50.678Z,18.4
2022-10-18T13:02:50.717Z,18.4
2022-10-18T13:04:50.410Z,18.4
2022-10-18T13:06:49.974Z,18.4
2022-10-18T13:08:50.892Z,18.4
2022-10-18T13:10:50.868Z,18.4
2022-10-18T13:12:50.741Z,18.4
2022-10-18T13:15:25.776Z,18.4
2022-10-18T13:16:50.086Z,18.4
2022-10-18T13:18:50.176Z,18.4
2022-10-18T13:20:50.359Z,18.5
2022-10-18T13:22:50.305Z,18.5
2022-10-18T13:24:50.166Z,18.5
2022-10-18T13:27:35.335Z,18.5
2022-10-18T13:28:50.956Z,18.6
2022-10-18T13:30:50.296Z,18.6
2022-10-18T13:32:50.309Z,18.6
2022-10-18T13:34:50.877Z,18.6
2022-10-18T13:36:50.327Z,18.6
2022-10-18T13:38:50.307Z,18.6
2022-10-18T13:40:50.446Z,18.6
2022-10-18T13:42:50.397Z,18.6
2022-10-18T13:44:50.327Z,18.6
2022-10-18T13:46:50.707Z,18.7
2022-10-18T13:48:50.592Z,18.7
2022-10-18T13:50:50.619Z,18.6
2022-10-18T13:52:50.473Z,18.7
2022-10-18T13:54:50.330Z,18.6
2022-10-18T13:56:50.733Z,18.6
2022-10-18T13:59:15.327Z,18.6
2022-10-18T14:00:50.722Z,18.6
2022-10-18T14:03:00.874Z,18.6
2022-10-18T14:04:50.653Z,18.6
2022-10-18T14:06:50.795Z,18.7
2022-10-18T14:08:50.787Z,18.7
2022-10-18T14:11:04.025Z,18.7
2022-10-18T14:12:50.205Z,18.7
2022-10-18T14:14:50.074Z,18.7
2022-10-18T14:16:50.276Z,18.7
2022-10-18T14:18:50.279Z,18.7
2022-10-18T14:21:18.795Z,18.7
2022-10-18T14:22:50.044Z,18.7
2022-10-18T14:24:50.169Z,18.7
2022-10-18T14:26:50.461Z,18.8
2022-10-18T14:29:01.101Z,18.8
2022-10-18T14:30:50.013Z,18.8
2022-10-18T14:32:50.069Z,18.8
2022-10-18T14:34:50.685Z,18.8
2022-10-18T14:36:50.135Z,18.8
2022-10-18T14:38:50.164Z,18.8
2022-10-18T14:40:50.050Z,18.8
2022-10-18T14:42:49.963Z,18.7
2022-10-18T14:44:56.888Z,18.7
2022-10-18T14:46:50.344Z,18.6
2022-10-18T14:48:50.455Z,18.6
2022-10-18T14:50:50.406Z,18.6
2022-10-18T14:52:50.351Z,18.6
2022-10-18T14:54:50.340Z,18.5
2022-10-18T14:56:50.683Z,18.5
2022-10-18T14:58:50.596Z,18.5
2022-10-18T15:00:50.761Z,18.5
2022-10-18T15:02:50.828Z,18.4
2022-10-18T15:04:50.159Z,18.4
2022-10-18T15:06:50.548Z,18.4
2022-10-18T15:08:50.474Z,18.4
2022-10-18T15:10:50.422Z,18.3
2022-10-18T15:13:11.623Z,18.3
2022-10-18T15:14:50.497Z,18.2
2022-10-18T15:16:50.820Z,18.2
2022-10-18T15:18:50.782Z,18.2
2022-10-18T15:20:50.848Z,18.2
2022-10-18T15:22:50.609Z,18.1
2022-10-18T15:24:50.538Z,18.1
2022-10-18T15:26:50.831Z,18.0
2022-10-18T15:28:51.118Z,18.0
2022-10-18T15:30:50.072Z,18.0
2022-10-18T15:32:50.246Z,17.9
2022-10-18T15:34:50.829Z,17.9
2022-10-18T15:36:50.149Z,17.9
2022-10-18T15:38:50.594Z,17.8
2022-10-18T15:40:50.612Z,17.8
2022-10-18T15:42:50.384Z,17.8
2022-10-18T15:44:50.245Z,17.8
2022-10-18T15:46:50.229Z,17.8
2022-10-18T15:48:50.174Z,17.7
2022-10-18T15:50:50.151Z,17.7
2022-10-18T15:52:49.974Z,17.7
2022-10-18T15:54:49.922Z,17.6
2022-10-18T15:56:50.600Z,17.6
2022-10-18T15:58:50.785Z,17.6
2022-10-18T16:00:50.738Z,17.6
2022-10-18T16:02:50.446Z,17.5
2022-10-18T16:04:50.805Z,17.5
2022-10-18T16:06:50.266Z,17.5
2022-10-18T16:08:50.194Z,17.5
2022-10-18T16:10:49.946Z,17.4
2022-10-18T16:12:51.135Z,17.4
2022-10-18T16:14:50.080Z,17.4
2022-10-18T16:16:51.664Z,17.4
2022-10-18T16:18:50.525Z,17.3
2022-10-18T16:20:50.329Z,17.3
2022-10-18T16:22:50.403Z,17.3
2022-10-18T16:24:50.464Z,17.2
2022-10-18T16:26:50.758Z,17.2
2022-10-18T16:28:51.123Z,17.1
2022-10-18T16:30:50.134Z,17.1
2022-10-18T16:32:50.262Z,17.1
2022-10-18T16:34:50.872Z,17.0
2022-10-18T16:36:50.116Z,17.0
2022-10-18T16:38:50.100Z,17.0
2022-10-18T16:40:50.908Z,16.9
2022-10-18T16:42:49.978Z,16.9
2022-10-18T16:44:49.989Z,16.8
2022-10-18T16:46:56.672Z,16.8
2022-10-18T16:48:50.492Z,16.8
2022-10-18T16:50:50.486Z,16.8
2022-10-18T16:52:50.317Z,16.7
2022-10-18T16:54:50.315Z,16.7
2022-10-18T16:56:50.786Z,16.7
2022-10-18T16:58:50.787Z,16.7
2022-10-18T17:00:50.918Z,16.6
2022-10-18T17:02:50.847Z,16.6
2022-10-18T17:04:50.323Z,16.6
2022-10-18T17:06:50.565Z,16.6
2022-10-18T17:08:50.479Z,16.6
2022-10-18T17:10:50.615Z,16.6
2022-10-18T17:12:50.412Z,16.6
2022-10-18T17:14:50.428Z,16.6
2022-10-18T17:16:57.819Z,16.6
2022-10-18T17:18:50.900Z,16.6
2022-10-18T17:20:49.933Z,16.6
2022-10-18T17:22:50.823Z,16.5
2022-10-18T17:24:50.727Z,16.5
2022-10-18T17:26:50.194Z,16.5
2022-10-18T17:28:50.414Z,16.5
2022-10-18T17:30:50.631Z,16.5
2022-10-18T17:32:50.518Z,16.5
2022-10-18T17:34:49.978Z,16.5
2022-10-18T17:36:50.309Z,16.5
2022-10-18T17:38:50.437Z,16.5
2022-10-18T17:40:50.398Z,16.5
2022-10-18T17:42:50.348Z,16.5
2022-10-18T17:44:58.102Z,16.5
2022-10-18T17:46:50.530Z,16.4
2022-10-18T17:48:50.462Z,16.4
2022-10-18T17:50:50.358Z,16.4
2022-10-18T17:52:50.363Z,16.4
2022-10-18T17:54:50.499Z,16.4
2022-10-18T17:56:55.017Z,16.4
2022-10-18T17:58:49.985Z,16.4
2022-10-18T18:00:49.962Z,16.4
2022-10-18T18:02:51.098Z,16.4
2022-10-18T18:04:50.490Z,16.4
2022-10-18T18:06:50.821Z,16.3
2022-10-18T18:08:50.835Z,16.3
2022-10-18T18:10:50.091Z,16.2
2022-10-18T18:12:49.967Z,16.2
2022-10-18T18:14:50.021Z,16.2
2022-10-18T18:16:50.469Z,16.2
2022-10-18T18:18:50.531Z,16.2
2022-10-18T18:20:55.675Z,16.2
2022-10-18T18:22:50.708Z,16.2
2022-10-18T18:24:50.734Z,16.2
2022-10-18T18:26:49.955Z,16.1
2022-10-18T18:28:51.415Z,16.0
2022-10-18T18:30:50.508Z,16.0
2022-10-18T18:32:50.347Z,16.0
2022-10-18T18:34:50.750Z,15.9
2022-10-18T18:36:50.145Z,15.9
2022-10-18T18:38:58.162Z,15.8
2022-10-18T18:40:49.937Z,15.8
2022-10-18T18:43:23.337Z,15.7
2022-10-18T18:44:50.730Z,15.6
2022-10-18T18:46:50.304Z,15.6
2022-10-18T18:48:50.291Z,15.6
2022-10-18T18:50:50.225Z,15.5
2022-10-18T18:52:50.255Z,15.5
2022-10-18T18:54:50.124Z,15.4
2022-10-18T18:56:50.314Z,15.4
2022-10-18T18:58:50.381Z,15.4
2022-10-18T19:00:50.196Z,15.3
2022-10-18T19:02:50.094Z,15.2
2022-10-18T19:04:50.606Z,15.2
2022-10-18T19:06:50.163Z,15.1
2022-10-18T19:08:50.091Z,15.1
2022-10-18T19:10:50.072Z,15.0
2022-10-18T19:12:50.055Z,15.0
2022-10-18T19:14:50.057Z,15.0
2022-10-18T19:16:50.309Z,14.9
2022-10-18T19:18:50.225Z,14.8
2022-10-18T19:20:50.075Z,14.7
2022-10-18T19:22:50.055Z,14.7
2022-10-18T19:24:50.114Z,14.7
2022-10-18T19:26:50.388Z,14.6
2022-10-18T19:28:50.505Z,14.6
2022-10-18T19:30:50.729Z,14.6
2022-10-18T19:32:50.655Z,14.6
2022-10-18T19:34:50.146Z,14.5
2022-10-18T19:36:50.310Z,14.4
2022-10-18T19:38:50.260Z,14.4
2022-10-18T19:40:54.195Z,14.4
2022-10-18T19:42:50.235Z,14.3
2022-10-18T19:44:50.129Z,14.3
2022-10-18T19:46:50.201Z,14.3
2022-10-18T19:48:50.933Z,14.3
2022-10-18T19:50:50.206Z,14.3
2022-10-18T19:52:50.038Z,14.3
2022-10-18T19:54:49.929Z,14.3
2022-10-18T19:56:50.372Z,14.3
2022-10-18T19:58:50.434Z,14.3
2022-10-18T20:00:50.241Z,14.3
2022-10-18T20:02:50.134Z,14.3
2022-10-18T20:04:50.838Z,14.3
2022-10-18T20:06:50.200Z,14.3
2022-10-18T20:08:50.422Z,14.3
2022-10-18T20:10:50.296Z,14.3
2022-10-18T20:12:50.211Z,14.3
2022-10-18T20:14:50.098Z,14.3
2022-10-18T20:16:50.367Z,14.3
2022-10-18T20:18:50.265Z,14.3
2022-10-18T20:20:50.194Z,14.3
2022-10-18T20:22:50.106Z,14.3
2022-10-18T20:24:50.129Z,14.3
2022-10-18T20:26:50.673Z,14.3
2022-10-18T20:28:50.640Z,14.3
2022-10-18T20:30:50.632Z,14.2
2022-10-18T20:32:50.688Z,14.2
2022-10-18T20:34:50.327Z,14.2
2022-10-18T20:36:50.652Z,14.2
2022-10-18T20:38:50.568Z,14.2
2022-10-18T20:40:50.700Z,14.2
2022-10-18T20:42:50.669Z,14.2
2022-10-18T20:44:50.701Z,14.1
2022-10-18T20:46:50.815Z,14.1
2022-10-18T20:48:50.634Z,14.1
2022-10-18T20:50:50.652Z,14.1
2022-10-18T20:52:50.956Z,14.0
2022-10-18T20:54:49.950Z,14.0
2022-10-18T20:56:50.109Z,14.0
2022-10-18T20:58:50.830Z,14.0
2022-10-18T21:00:50.793Z,14.0
2022-10-18T21:02:50.719Z,13.9
2022-10-18T21:04:50.347Z,13.9
2022-10-18T21:06:50.584Z,13.9
2022-10-18T21:08:50.607Z,13.8
2022-10-18T21:10:50.521Z,13.8
2022-10-18T21:12:50.452Z,13.8
2022-10-18T21:14:50.388Z,13.7
2022-10-18T21:16:50.698Z,13.7
2022-10-18T21:18:50.709Z,13.7
2022-10-18T21:20:50.729Z,13.6
2022-10-18T21:22:50.831Z,13.6
2022-10-18T21:24:50.635Z,13.6
2022-10-18T21:26:50.815Z,13.5
2022-10-18T21:28:51.135Z,13.5
2022-10-18T21:30:50.169Z,13.4
2022-10-18T21:32:50.108Z,13.4
2022-10-18T21:34:50.556Z,13.4
2022-10-18T21:36:50.072Z,13.4
2022-10-18T21:38:50.027Z,13.4
2022-10-18T21:40:49.979Z,13.3
2022-10-18T21:42:50.902Z,13.3
2022-10-18T21:44:50.741Z,13.3
2022-10-18T21:46:50.885Z,13.2
2022-10-18T21:48:49.963Z,13.2
2022-10-18T21:50:50.877Z,13.2
2022-10-18T21:52:49.986Z,13.1
2022-10-18T21:54:49.984Z,13.1
2022-10-18T21:56:50.506Z,13.0
2022-10-18T21:58:50.434Z,13.0
2022-10-18T22:00:50.778Z,13.0
2022-10-18T22:02:50.105Z,13.0
2022-10-18T22:04:50.634Z,12.9
2022-10-18T22:06:50.939Z,12.9
2022-10-18T22:08:50.091Z,12.9
2022-10-18T22:10:50.053Z,12.9
2022-10-18T22:12:50.110Z,12.8
2022-10-18T22:14:50.859Z,12.8
2022-10-18T22:16:49.995Z,12.8
2022-10-18T22:18:50.073Z,12.8
2022-10-18T22:20:50.214Z,12.8
2022-10-18T22:22:49.977Z,12.9
2022-10-18T22:24:50.928Z,12.9
2022-10-18T22:26:50.073Z,12.9
2022-10-18T22:28:50.207Z,13.0
2022-10-18T22:30:50.112Z,13.0
2022-10-18T22:32:50.041Z,13.0
2022-10-18T22:34:50.554Z,13.0
2022-10-18T22:36:50.869Z,13.1
2022-10-18T22:38:49.996Z,13.1
2022-10-18T22:40:50.901Z,13.2
2022-10-18T22:42:50.788Z,13.2
2022-10-18T22:44:50.637Z,13.2
2022-10-18T22:46:50.084Z,13.2
2022-10-18T22:48:50.168Z,13.2
2022-10-18T22:50:50.167Z,13.2
2022-10-18T22:52:54.931Z,13.3
2022-10-18T22:54:49.953Z,13.3
2022-10-18T22:56:50.417Z,13.3
2022-10-18T22:58:50.362Z,13.3
2022-10-18T23:00:50.392Z,13.3
2022-10-18T23:02:50.257Z,13.3
2022-10-18T23:04:49.995Z,13.3
2022-10-18T23:06:50.268Z,13.3
2022-10-18T23:08:50.278Z,13.3
2022-10-18T23:10:50.167Z,13.3
2022-10-18T23:12:50.232Z,13.3
2022-10-18T23:14:50.066Z,13.3
2022-10-18T23:16:50.137Z,13.3
2022-10-18T23:18:50.078Z,13.3
2022-10-18T23:20:50.012Z,13.3
2022-10-18T23:22:50.235Z,13.3
2022-10-18T23:24:50.267Z,13.3
2022-10-18T23:26:50.491Z,13.3
2022-10-18T23:28:50.802Z,13.3
2022-10-18T23:30:50.834Z,13.2
2022-10-18T23:32:50.752Z,13.2
2022-10-18T23:34:50.138Z,13.2
2022-10-18T23:36:50.415Z,13.2
2022-10-18T23:38:50.215Z,13.2
2022-10-18T23:40:50.106Z,13.2
2022-10-18T23:42:49.945Z,13.2
2022-10-18T23:44:50.761Z,13.2
2022-10-18T23:46:50.811Z,13.1
2022-10-18T23:48:49.959Z,13.1
2022-10-18T23:50:50.907Z,13.1
2022-10-18T23:52:50.863Z,13.1
2022-10-18T23:54:50.840Z,13.1
2022-10-18T23:56:50.016Z,13.0
2022-10-18T23:58:49.953Z,13.0
